Time;durP1;ratioP1;P1;durP2;ratioP2;P2;SDS_P1;SDS_P2;PMS_P1;PMS_P2;Temp;Humidity;BMP_temperature;BMP_pressure;BME280_temperature;BME280_humidity;BME280_pressure;Samples;Min_cycle;Max_cycle;Signal;HPM_P1;HPM_P2
2022/01/31 00:02:00;;;;;;;14.37;3.50;;;4.50;99.90;;;;;;4982188;28;20652;-78
2022/01/31 00:04:25;;;;;;;12.03;3.37;;;4.50;99.90;;;;;;4983586;28;20302;-77
2022/01/31 00:06:53;;;;;;;21.03;3.23;;;4.50;99.90;;;;;;4987102;28;20200;-80
2022/01/31 00:09:19;;;;;;;11.30;2.43;;;4.50;99.90;;;;;;4978660;28;20189;-84
2022/01/31 00:11:54;;;;;;;17.10;3.83;;;4.50;99.90;;;;;;4980518;28;20224;-77
2022/01/31 00:14:42;;;;;;;16.87;4.20;;;4.40;99.90;;;;;;4966010;28;20196;-79
2022/01/31 00:17:09;;;;;;;18.63;3.60;;;4.40;99.90;;;;;;4978920;28;20196;-79
2022/01/31 00:19:37;;;;;;;12.00;3.13;;;4.40;99.90;;;;;;4984412;28;20234;-81
2022/01/31 00:22:07;;;;;;;11.87;3.30;;;4.40;99.90;;;;;;4976339;28;20212;-80
2022/01/31 00:24:33;;;;;;;13.70;3.77;;;4.40;99.90;;;;;;4980920;28;20209;-78
2022/01/31 00:27:00;;;;;;;13.80;3.67;;;4.40;99.90;;;;;;4979782;28;20299;-79
2022/01/31 00:29:25;;;;;;;20.40;4.13;;;4.40;99.90;;;;;;4985525;28;20647;-81
2022/01/31 00:31:51;;;;;;;14.33;3.87;;;4.40;99.90;;;;;;4986347;28;20246;-81
2022/01/31 00:34:17;;;;;;;14.53;3.47;;;4.40;99.90;;;;;;4984629;28;20611;-82
2022/01/31 00:36:43;;;;;;;15.40;3.67;;;4.30;99.90;;;;;;4984923;28;20214;-81
2022/01/31 00:39:09;;;;;;;17.13;4.57;;;4.30;99.90;;;;;;4994144;28;20944;-80
2022/01/31 00:41:35;;;;;;;15.57;3.97;;;4.30;99.90;;;;;;4981671;28;20221;-90
2022/01/31 00:46:35;;;;;;;23.13;4.03;;;4.30;99.90;;;;;;4994244;28;20604;-88
2022/01/31 00:49:00;;;;;;;16.17;4.13;;;4.30;99.90;;;;;;4979869;28;20168;-86
2022/01/31 00:51:29;;;;;;;19.93;4.33;;;4.30;99.90;;;;;;4984845;28;20626;-83
2022/01/31 00:53:54;;;;;;;18.43;4.63;;;4.30;99.90;;;;;;4985833;28;20204;-84
2022/01/31 00:56:20;;;;;;;20.00;3.40;;;4.20;99.90;;;;;;4990659;28;20269;-91
2022/01/31 00:58:47;;;;;;;20.37;4.43;;;4.20;99.90;;;;;;4987096;28;20198;-87
2022/01/31 01:01:13;;;;;;;23.20;5.57;;;4.10;99.90;;;;;;4979996;28;21003;-89
2022/01/31 01:03:38;;;;;;;15.60;4.47;;;4.00;99.90;;;;;;4967625;28;20186;-89
2022/01/31 01:06:04;;;;;;;18.20;4.93;;;3.90;99.90;;;;;;4983328;28;20211;-89
2022/01/31 01:08:30;;;;;;;28.63;5.20;;;3.80;99.90;;;;;;4976579;28;20180;-84
2022/01/31 01:10:55;;;;;;;17.50;4.10;;;3.80;99.90;;;;;;4984978;28;20232;-85
2022/01/31 01:13:20;;;;;;;20.50;4.53;;;3.80;99.90;;;;;;4983674;28;20267;-85
2022/01/31 01:15:46;;;;;;;14.27;3.70;;;3.70;99.90;;;;;;4993820;28;20425;-83
2022/01/31 01:18:11;;;;;;;14.70;5.10;;;3.80;99.90;;;;;;4996740;28;20268;-83
2022/01/31 01:20:37;;;;;;;14.33;4.43;;;3.80;99.90;;;;;;5000887;28;20219;-84
2022/01/31 01:23:03;;;;;;;22.33;4.20;;;3.80;99.90;;;;;;4984629;28;20283;-82
2022/01/31 01:25:31;;;;;;;22.03;4.33;;;3.80;99.90;;;;;;4980440;28;20216;-74
2022/01/31 01:27:56;;;;;;;17.17;3.77;;;3.80;99.90;;;;;;4989595;28;20203;-75
2022/01/31 01:30:22;;;;;;;26.40;5.07;;;3.90;99.90;;;;;;4970032;28;20202;-75
2022/01/31 01:32:59;;;;;;;19.93;4.33;;;3.90;99.90;;;;;;4987516;28;20188;-70
2022/01/31 01:35:29;;;;;;;18.07;3.40;;;4.00;99.90;;;;;;4978291;28;20678;-70
2022/01/31 01:37:55;;;;;;;26.57;5.27;;;3.90;99.90;;;;;;4979056;28;20205;-70
2022/01/31 01:40:20;;;;;;;20.67;4.90;;;3.90;99.90;;;;;;4980789;28;20208;-69
2022/01/31 01:42:46;;;;;;;17.17;5.83;;;4.00;99.90;;;;;;4981912;28;20610;-69
2022/01/31 01:45:11;;;;;;;10.07;3.13;;;4.00;99.90;;;;;;4977067;28;20258;-67
2022/01/31 01:47:37;;;;;;;15.53;3.50;;;4.00;99.90;;;;;;4976045;28;20198;-70
2022/01/31 01:50:03;;;;;;;18.43;5.13;;;4.00;99.90;;;;;;4981746;28;20292;-69
2022/01/31 01:52:28;;;;;;;17.47;7.73;;;4.10;99.90;;;;;;4993146;28;20550;-69
2022/01/31 01:54:54;;;;;;;10.90;3.83;;;4.10;99.90;;;;;;4999255;28;20211;-68
2022/01/31 01:57:23;;;;;;;15.03;5.30;;;4.10;99.90;;;;;;4987854;28;20192;-69
2022/01/31 01:59:54;;;;;;;16.40;3.77;;;4.00;99.90;;;;;;4992372;28;20620;-69
2022/01/31 02:02:20;;;;;;;19.73;5.40;;;4.00;99.90;;;;;;4996533;28;20238;-68
2022/01/31 02:04:45;;;;;;;25.53;4.43;;;4.00;99.90;;;;;;4990972;28;20217;-68
2022/01/31 02:07:12;;;;;;;14.37;2.97;;;4.10;99.90;;;;;;4984471;28;20193;-68
2022/01/31 02:09:44;;;;;;;14.77;3.90;;;4.00;99.90;;;;;;4978022;28;20197;-68
2022/01/31 02:12:09;;;;;;;16.33;3.77;;;4.00;99.90;;;;;;4999365;28;20195;-69
2022/01/31 02:14:35;;;;;;;14.07;3.13;;;4.00;99.90;;;;;;4996420;28;20670;-70
2022/01/31 02:17:00;;;;;;;18.00;4.60;;;4.00;99.90;;;;;;4993149;28;20232;-68
2022/01/31 02:19:26;;;;;;;18.27;4.20;;;3.90;99.90;;;;;;4984779;28;20243;-70
2022/01/31 02:21:53;;;;;;;17.07;4.40;;;3.90;99.90;;;;;;4987241;28;20278;-68
2022/01/31 02:24:19;;;;;;;9.47;3.10;;;3.90;99.90;;;;;;4987728;28;20226;-69
2022/01/31 02:26:45;;;;;;;25.00;5.23;;;3.90;99.90;;;;;;4994454;28;20318;-66
2022/01/31 02:29:11;;;;;;;26.80;5.40;;;3.90;99.90;;;;;;4982125;28;20774;-66
2022/01/31 02:31:42;;;;;;;18.90;3.93;;;3.90;99.90;;;;;;4990511;28;20188;-68
2022/01/31 02:34:07;;;;;;;22.73;4.27;;;3.90;99.90;;;;;;4978558;28;20265;-70
2022/01/31 02:36:33;;;;;;;14.50;3.37;;;3.90;99.90;;;;;;4993384;28;20679;-69
2022/01/31 02:38:58;;;;;;;17.83;4.30;;;3.90;99.90;;;;;;4997803;28;20203;-70
2022/01/31 02:41:27;;;;;;;17.50;4.67;;;3.90;99.90;;;;;;4992211;28;20642;-70
2022/01/31 02:43:54;;;;;;;20.50;5.23;;;3.90;99.90;;;;;;4986094;28;20623;-70
2022/01/31 02:46:22;;;;;;;15.13;4.27;;;3.90;99.90;;;;;;4990012;28;20212;-66
2022/01/31 02:48:50;;;;;;;13.30;3.37;;;3.90;99.90;;;;;;4981297;28;20227;-69
2022/01/31 02:51:20;;;;;;;10.40;3.30;;;3.90;99.90;;;;;;4991986;28;20188;-67
2022/01/31 02:53:46;;;;;;;18.33;4.83;;;3.90;99.90;;;;;;4984008;28;20204;-69
2022/01/31 02:56:12;;;;;;;17.37;4.93;;;3.90;99.90;;;;;;4981886;28;20218;-68
2022/01/31 02:58:37;;;;;;;23.50;4.97;;;3.90;99.90;;;;;;4980313;28;20228;-68
2022/01/31 03:01:03;;;;;;;18.50;3.90;;;3.90;99.90;;;;;;4990298;28;20188;-70
2022/01/31 03:03:29;;;;;;;25.87;5.63;;;3.80;99.90;;;;;;4981842;28;20193;-70
2022/01/31 03:05:58;;;;;;;13.63;3.80;;;3.80;99.90;;;;;;4980357;28;20205;-71
2022/01/31 03:08:24;;;;;;;20.40;3.93;;;3.90;99.90;;;;;;4989630;28;20249;-76
2022/01/31 03:10:50;;;;;;;18.83;3.50;;;3.90;99.90;;;;;;4987914;28;20196;-65
2022/01/31 03:13:16;;;;;;;19.80;4.57;;;3.90;99.90;;;;;;4990097;28;20191;-66
2022/01/31 03:15:42;;;;;;;20.23;4.10;;;3.90;99.90;;;;;;4963811;28;20300;-66
2022/01/31 03:18:08;;;;;;;23.90;4.27;;;3.90;99.90;;;;;;4988876;28;20188;-67
2022/01/31 03:20:33;;;;;;;15.57;4.00;;;3.90;99.90;;;;;;4987256;28;20298;-66
2022/01/31 03:22:59;;;;;;;11.30;3.53;;;3.80;99.90;;;;;;4995472;28;20193;-67
2022/01/31 03:25:25;;;;;;;18.53;4.40;;;3.80;99.90;;;;;;4981773;28;20216;-67
2022/01/31 03:27:51;;;;;;;19.63;5.17;;;3.80;99.90;;;;;;4995140;28;20194;-67
2022/01/31 03:30:22;;;;;;;17.27;4.33;;;3.90;99.90;;;;;;4983358;28;20735;-67
2022/01/31 03:32:49;;;;;;;22.13;3.77;;;3.90;99.90;;;;;;4975215;28;20193;-68
2022/01/31 03:35:15;;;;;;;21.40;3.87;;;3.90;99.90;;;;;;4998670;28;20850;-67
2022/01/31 03:37:41;;;;;;;17.63;3.43;;;3.90;99.90;;;;;;4989183;28;20250;-69
2022/01/31 03:40:08;;;;;;;19.73;4.37;;;3.80;99.90;;;;;;4995333;28;20229;-69
2022/01/31 03:42:35;;;;;;;20.07;4.80;;;3.80;99.90;;;;;;4981219;28;20303;-69
2022/01/31 03:45:01;;;;;;;16.97;4.03;;;3.80;99.90;;;;;;4989437;28;20534;-68
2022/01/31 03:47:27;;;;;;;14.83;3.97;;;3.70;99.90;;;;;;4986375;28;20199;-69
2022/01/31 03:49:52;;;;;;;19.73;3.97;;;3.80;99.90;;;;;;4986898;28;20181;-69
2022/01/31 03:52:18;;;;;;;25.53;4.67;;;3.80;99.90;;;;;;4985831;28;20201;-69
2022/01/31 03:54:44;;;;;;;23.00;4.70;;;3.80;99.90;;;;;;5000167;28;20189;-68
2022/01/31 03:57:10;;;;;;;19.90;4.77;;;3.80;99.90;;;;;;4987441;28;20230;-68
2022/01/31 03:59:35;;;;;;;16.13;4.67;;;3.70;99.90;;;;;;4992833;28;20216;-68
2022/01/31 04:02:03;;;;;;;17.67;4.70;;;3.70;99.90;;;;;;4995437;28;20360;-69
2022/01/31 04:04:28;;;;;;;19.00;4.57;;;3.70;99.90;;;;;;4989819;28;20307;-68
2022/01/31 04:06:54;;;;;;;27.23;4.57;;;3.70;99.90;;;;;;4994078;28;20282;-68
2022/01/31 04:09:20;;;;;;;15.67;4.60;;;3.70;99.90;;;;;;4994747;28;20185;-68
2022/01/31 04:11:45;;;;;;;17.77;4.17;;;3.60;99.90;;;;;;4991997;28;20184;-67
2022/01/31 04:14:12;;;;;;;15.77;3.50;;;3.60;99.90;;;;;;4989651;28;20601;-67
2022/01/31 04:16:37;;;;;;;17.47;4.57;;;3.60;99.90;;;;;;4983337;28;20197;-67
2022/01/31 04:19:03;;;;;;;23.97;5.17;;;3.70;99.90;;;;;;4990759;28;20200;-67
2022/01/31 04:21:28;;;;;;;16.60;4.43;;;3.70;99.90;;;;;;4997645;28;20300;-67
2022/01/31 04:23:54;;;;;;;18.67;4.30;;;3.70;99.90;;;;;;4989809;28;20258;-66
2022/01/31 04:26:21;;;;;;;16.63;3.43;;;3.60;99.90;;;;;;4990359;28;20181;-66
2022/01/31 04:28:50;;;;;;;16.57;4.87;;;3.60;99.90;;;;;;4972111;28;20200;-66
2022/01/31 04:33:46;;;;;;;15.23;4.17;;;3.60;99.90;;;;;;4987176;28;20192;-68
2022/01/31 04:36:14;;;;;;;18.33;3.80;;;3.60;99.90;;;;;;4986214;28;20228;-67
2022/01/31 04:38:40;;;;;;;17.27;4.40;;;3.60;99.90;;;;;;4993058;28;20211;-67
2022/01/31 04:41:06;;;;;;;19.93;4.10;;;3.60;99.90;;;;;;4985529;28;20217;-67
2022/01/31 04:43:32;;;;;;;17.97;4.30;;;3.60;99.90;;;;;;4989813;28;20214;-67
2022/01/31 04:46:00;;;;;;;24.37;5.03;;;3.60;99.90;;;;;;4994705;28;20261;-68
2022/01/31 04:48:26;;;;;;;19.87;5.20;;;3.60;99.90;;;;;;4990225;28;20299;-67
2022/01/31 04:50:51;;;;;;;16.73;5.03;;;3.60;99.90;;;;;;4998235;28;20286;-67
2022/01/31 04:53:17;;;;;;;24.90;5.40;;;3.60;99.90;;;;;;4987174;28;20204;-67
2022/01/31 04:55:43;;;;;;;21.57;4.30;;;3.60;99.90;;;;;;4992205;28;20578;-67
2022/01/31 04:58:08;;;;;;;25.03;4.83;;;3.60;99.90;;;;;;4987374;28;20641;-68
2022/01/31 05:00:34;;;;;;;24.77;5.53;;;3.50;99.90;;;;;;4995572;28;20202;-68
2022/01/31 05:03:00;;;;;;;13.87;5.60;;;3.50;99.90;;;;;;5001269;28;20200;-67
2022/01/31 05:05:26;;;;;;;19.23;5.33;;;3.60;99.90;;;;;;4996131;28;20827;-68
2022/01/31 05:07:54;;;;;;;24.43;6.57;;;3.60;99.90;;;;;;4995183;28;20201;-67
2022/01/31 05:10:20;;;;;;;22.37;4.50;;;3.60;99.90;;;;;;5001217;28;20268;-67
2022/01/31 05:12:46;;;;;;;9.83;3.63;;;3.60;99.90;;;;;;4999286;28;20713;-67
2022/01/31 05:15:12;;;;;;;21.97;4.57;;;3.60;99.90;;;;;;5004466;28;20200;-68
2022/01/31 05:17:37;;;;;;;23.87;4.93;;;3.60;99.90;;;;;;4999010;28;20206;-68
2022/01/31 05:20:04;;;;;;;23.37;6.27;;;3.60;99.90;;;;;;4994242;28;20196;-68
2022/01/31 05:22:30;;;;;;;21.87;5.10;;;3.60;99.90;;;;;;4992728;28;20203;-67
2022/01/31 05:24:56;;;;;;;26.87;5.10;;;3.50;99.90;;;;;;4991923;28;20678;-67
2022/01/31 05:27:21;;;;;;;25.00;5.57;;;3.50;99.90;;;;;;4987829;28;20684;-66
2022/01/31 05:29:47;;;;;;;16.67;4.30;;;3.50;99.90;;;;;;4989747;28;20184;-67
2022/01/31 05:32:13;;;;;;;21.40;4.47;;;3.50;99.90;;;;;;4986629;28;20703;-66
2022/01/31 05:34:38;;;;;;;19.57;4.20;;;3.50;99.90;;;;;;4994769;28;20220;-66
2022/01/31 05:37:04;;;;;;;19.93;4.70;;;3.50;99.90;;;;;;4989261;28;20670;-66
2022/01/31 05:39:30;;;;;;;43.53;5.20;;;3.60;99.90;;;;;;4994683;28;20196;-66
2022/01/31 05:41:57;;;;;;;18.23;3.70;;;3.60;99.90;;;;;;4994632;28;20721;-66
2022/01/31 05:44:23;;;;;;;18.70;4.40;;;3.60;99.90;;;;;;5004805;28;20276;-65
2022/01/31 05:46:50;;;;;;;19.23;4.30;;;3.60;99.90;;;;;;4998085;28;20332;-66
2022/01/31 05:49:16;;;;;;;32.23;4.43;;;3.50;99.90;;;;;;4994677;28;20192;-66
2022/01/31 05:52:04;;;;;;;13.40;4.40;;;3.60;99.90;;;;;;5001490;28;20202;-65
2022/01/31 05:54:31;;;;;;;18.77;5.13;;;3.50;99.90;;;;;;4993901;28;20282;-66
2022/01/31 05:56:58;;;;;;;19.73;4.70;;;3.60;99.90;;;;;;4992496;28;20669;-67
2022/01/31 05:59:24;;;;;;;9.57;3.37;;;3.50;99.90;;;;;;4977598;28;20300;-66
2022/01/31 06:01:50;;;;;;;22.17;5.73;;;3.50;99.90;;;;;;4997566;28;20203;-67
2022/01/31 06:04:15;;;;;;;23.17;4.20;;;3.60;99.90;;;;;;4993557;28;20298;-67
2022/01/31 06:06:40;;;;;;;23.53;5.67;;;3.60;99.90;;;;;;4985710;28;20642;-67
2022/01/31 06:09:06;;;;;;;19.73;6.07;;;3.50;99.90;;;;;;4995733;28;20201;-67
2022/01/31 06:11:34;;;;;;;22.27;4.17;;;3.60;99.90;;;;;;4991316;28;20305;-66
2022/01/31 06:14:07;;;;;;;17.77;3.63;;;3.50;99.90;;;;;;4988017;28;20587;-67
2022/01/31 06:16:32;;;;;;;12.30;5.33;;;3.50;99.90;;;;;;4975858;28;20191;-67
2022/01/31 06:18:58;;;;;;;24.30;4.70;;;3.50;99.90;;;;;;4988352;28;20691;-67
2022/01/31 06:21:23;;;;;;;17.83;3.80;;;3.50;99.90;;;;;;4999781;28;20231;-70
2022/01/31 06:23:49;;;;;;;16.17;4.07;;;3.50;99.90;;;;;;4991294;28;20599;-68
2022/01/31 06:26:15;;;;;;;23.67;4.37;;;3.50;99.90;;;;;;4999036;28;20560;-67
2022/01/31 06:28:40;;;;;;;19.63;4.43;;;3.50;99.90;;;;;;4968621;28;20667;-72
2022/01/31 06:31:06;;;;;;;15.60;4.23;;;3.60;99.90;;;;;;4978339;28;20602;-71
2022/01/31 06:33:32;;;;;;;29.97;5.07;;;3.50;99.90;;;;;;4981118;28;20205;-73
2022/01/31 06:35:58;;;;;;;15.23;4.43;;;3.50;99.90;;;;;;4979300;28;20579;-68
2022/01/31 06:38:24;;;;;;;13.87;3.40;;;3.40;99.90;;;;;;4978029;28;20605;-69
2022/01/31 06:40:50;;;;;;;15.93;4.00;;;3.50;99.90;;;;;;4991277;28;20268;-73
2022/01/31 06:43:15;;;;;;;22.27;5.23;;;3.50;99.90;;;;;;4980574;28;20202;-70
2022/01/31 06:45:41;;;;;;;24.87;5.93;;;3.50;99.90;;;;;;4982262;28;20708;-70
2022/01/31 06:48:06;;;;;;;25.13;4.93;;;3.40;99.90;;;;;;4979555;28;20206;-70
2022/01/31 06:50:32;;;;;;;15.20;4.00;;;3.40;99.90;;;;;;4982925;28;20342;-71
2022/01/31 06:52:59;;;;;;;16.17;4.23;;;3.40;99.90;;;;;;4991622;28;20262;-70
2022/01/31 06:55:25;;;;;;;17.67;4.80;;;3.40;99.90;;;;;;4999888;28;20203;-71
2022/01/31 06:57:51;;;;;;;21.90;5.17;;;3.40;99.90;;;;;;4990663;28;20201;-68
2022/01/31 07:00:18;;;;;;;24.33;4.63;;;3.30;99.90;;;;;;4978296;28;20295;-68
2022/01/31 07:02:45;;;;;;;18.23;4.97;;;3.40;99.90;;;;;;4989645;28;20208;-70
2022/01/31 07:05:12;;;;;;;18.47;4.37;;;3.40;99.90;;;;;;5003213;28;20540;-70
2022/01/31 07:07:38;;;;;;;23.30;5.13;;;3.40;99.90;;;;;;5000353;28;20204;-70
2022/01/31 07:10:05;;;;;;;17.20;4.80;;;3.40;99.90;;;;;;4989706;28;20784;-72
2022/01/31 07:12:37;;;;;;;18.73;4.43;;;3.40;99.90;;;;;;4986069;28;20212;-70
2022/01/31 07:15:09;;;;;;;25.73;5.93;;;3.40;99.90;;;;;;4982830;28;20564;-71
2022/01/31 07:17:36;;;;;;;13.90;4.03;;;3.40;99.90;;;;;;4968913;28;20205;-71
2022/01/31 07:20:04;;;;;;;17.40;3.93;;;3.40;99.90;;;;;;4999348;28;20206;-69
2022/01/31 07:22:36;;;;;;;17.30;4.50;;;3.40;99.90;;;;;;4992416;28;20588;-70
2022/01/31 07:25:06;;;;;;;20.13;6.03;;;3.40;99.90;;;;;;4994790;28;20210;-69
2022/01/31 07:27:32;;;;;;;15.93;4.07;;;3.40;99.90;;;;;;4994773;28;20233;-70
2022/01/31 07:29:58;;;;;;;19.43;4.97;;;3.40;99.90;;;;;;4986581;28;20193;-70
2022/01/31 07:32:24;;;;;;;17.53;4.77;;;3.40;99.90;;;;;;4990120;28;20818;-70
2022/01/31 07:34:53;;;;;;;21.50;4.83;;;3.40;99.90;;;;;;4987168;28;20934;-70
2022/01/31 07:37:19;;;;;;;21.07;4.37;;;3.40;99.90;;;;;;4987411;28;20249;-70
2022/01/31 07:39:45;;;;;;;26.17;6.80;;;3.40;99.90;;;;;;4980415;28;20222;-69
2022/01/31 07:42:10;;;;;;;19.87;4.50;;;3.30;99.90;;;;;;4992629;28;20769;-69
2022/01/31 07:44:36;;;;;;;18.50;4.43;;;3.30;99.90;;;;;;4996612;28;20523;-69
2022/01/31 07:47:03;;;;;;;13.03;4.27;;;3.30;99.90;;;;;;4996915;28;20536;-70
2022/01/31 07:49:29;;;;;;;21.17;5.07;;;3.40;99.90;;;;;;4995205;28;20253;-69
2022/01/31 07:51:56;;;;;;;18.30;4.33;;;3.40;99.90;;;;;;4985368;28;20194;-69
2022/01/31 07:54:22;;;;;;;21.97;5.40;;;3.40;99.90;;;;;;4994476;28;20594;-69
2022/01/31 07:56:47;;;;;;;24.60;4.37;;;3.40;99.90;;;;;;4981686;28;20189;-69
2022/01/31 07:59:13;;;;;;;30.37;5.87;;;3.50;99.90;;;;;;4999671;28;20329;-70
2022/01/31 08:01:39;;;;;;;24.03;5.63;;;3.40;99.90;;;;;;4984845;28;20189;-70
2022/01/31 08:04:04;;;;;;;20.37;5.77;;;3.50;99.90;;;;;;4990287;28;20258;-71
2022/01/31 08:06:30;;;;;;;17.63;5.07;;;3.40;99.90;;;;;;5003223;28;20224;-70
2022/01/31 08:08:56;;;;;;;14.17;4.80;;;3.50;99.90;;;;;;4993564;28;20204;-70
2022/01/31 08:11:23;;;;;;;20.53;6.07;;;3.50;99.90;;;;;;4998390;28;20192;-71
2022/01/31 08:13:54;;;;;;;22.20;5.47;;;3.60;99.90;;;;;;4991871;28;20203;-71
2022/01/31 08:16:20;;;;;;;22.87;6.23;;;3.60;99.90;;;;;;4998445;28;20188;-71
2022/01/31 08:18:46;;;;;;;17.37;5.03;;;3.60;99.90;;;;;;4992472;28;20709;-71
2022/01/31 08:21:14;;;;;;;19.67;4.63;;;3.60;99.90;;;;;;4987988;28;20676;-72
2022/01/31 08:23:40;;;;;;;21.83;4.97;;;3.60;99.90;;;;;;4989331;28;20209;-71
2022/01/31 08:26:08;;;;;;;15.73;4.90;;;3.60;99.90;;;;;;5001997;28;20204;-71
2022/01/31 08:28:38;;;;;;;18.97;5.00;;;3.60;99.90;;;;;;4997170;28;20200;-72
2022/01/31 08:31:40;;;;;;;22.03;5.73;;;3.70;99.90;;;;;;4991425;28;20188;-71
2022/01/31 08:36:22;;;;;;;22.47;4.93;;;3.70;99.90;;;;;;4985743;28;20303;-71
2022/01/31 08:38:48;;;;;;;14.77;5.50;;;3.70;99.90;;;;;;4992882;28;20201;-71
2022/01/31 08:41:14;;;;;;;17.47;4.67;;;3.60;99.90;;;;;;4987348;28;20227;-71
2022/01/31 08:43:40;;;;;;;21.23;5.10;;;3.60;99.90;;;;;;4996917;28;20697;-70
2022/01/31 08:46:08;;;;;;;16.60;4.83;;;3.60;99.90;;;;;;4991175;28;20272;-69
2022/01/31 08:48:34;;;;;;;21.23;5.23;;;3.60;99.90;;;;;;4987991;28;20208;-69
2022/01/31 08:51:00;;;;;;;23.10;5.83;;;3.60;99.90;;;;;;4999132;28;20219;-69
2022/01/31 08:53:26;;;;;;;18.83;5.03;;;3.60;99.90;;;;;;4984146;28;20641;-70
2022/01/31 08:55:58;;;;;;;11.13;4.67;;;3.60;99.90;;;;;;4993503;28;20222;-70
2022/01/31 08:58:24;;;;;;;23.33;6.27;;;3.60;99.90;;;;;;4988270;28;20261;-69
2022/01/31 09:00:58;;;;;;;19.87;5.20;;;3.70;99.90;;;;;;4993237;28;20768;-69
2022/01/31 09:03:42;;;;;;;14.10;4.27;;;3.80;99.90;;;;;;4985968;28;20578;-70
2022/01/31 09:06:09;;;;;;;14.27;4.43;;;3.80;99.90;;;;;;4994342;28;20284;-70
2022/01/31 09:08:36;;;;;;;16.90;4.77;;;3.90;99.90;;;;;;4988369;28;20208;-70
2022/01/31 09:11:02;;;;;;;24.93;6.07;;;4.00;99.90;;;;;;4990636;28;20188;-70
2022/01/31 09:13:27;;;;;;;21.30;4.87;;;4.00;99.90;;;;;;4988817;28;20209;-70
2022/01/31 09:15:53;;;;;;;17.03;4.73;;;4.10;99.90;;;;;;4993135;28;20320;-69
2022/01/31 09:18:19;;;;;;;16.60;5.30;;;4.10;99.90;;;;;;4985712;28;20216;-69
2022/01/31 09:20:44;;;;;;;18.33;5.07;;;4.20;99.90;;;;;;4996426;28;20559;-69
2022/01/31 09:23:10;;;;;;;18.07;5.77;;;4.10;99.90;;;;;;4987201;28;20220;-70
2022/01/31 09:25:36;;;;;;;11.70;4.67;;;4.10;99.90;;;;;;5000938;28;20348;-70
2022/01/31 09:28:03;;;;;;;15.13;4.73;;;4.20;99.90;;;;;;4991954;28;20223;-74
2022/01/31 09:30:29;;;;;;;18.10;5.47;;;4.30;99.90;;;;;;4989613;28;20237;-73
2022/01/31 09:32:56;;;;;;;25.27;4.97;;;4.30;99.90;;;;;;4992494;28;20197;-70
2022/01/31 09:35:22;;;;;;;14.10;4.83;;;4.30;99.90;;;;;;4989181;28;20215;-77
2022/01/31 09:37:48;;;;;;;16.70;4.47;;;4.40;99.90;;;;;;4993385;28;20693;-71
2022/01/31 09:40:18;;;;;;;20.37;5.13;;;4.40;99.90;;;;;;4990807;28;20193;-71
2022/01/31 09:43:13;;;;;;;16.70;4.60;;;4.40;99.90;;;;;;4991394;28;20239;-70
2022/01/31 09:48:32;;;;;;;19.43;5.67;;;4.60;99.90;;;;;;4992613;28;20203;-71
2022/01/31 09:51:00;;;;;;;22.00;7.13;;;4.60;99.90;;;;;;4975200;28;20188;-73
2022/01/31 09:53:25;;;;;;;24.10;4.77;;;4.60;99.90;;;;;;4983690;28;20203;-71
2022/01/31 09:55:54;;;;;;;19.97;5.00;;;4.60;99.90;;;;;;4996849;28;20196;-70
2022/01/31 09:58:20;;;;;;;17.53;4.83;;;4.60;99.90;;;;;;4991194;28;20200;-69
2022/01/31 10:00:46;;;;;;;18.00;5.97;;;4.70;99.90;;;;;;4984422;28;20342;-70
2022/01/31 10:03:12;;;;;;;18.87;5.20;;;4.70;99.90;;;;;;4993686;28;20211;-71
2022/01/31 10:05:38;;;;;;;17.17;4.27;;;4.70;99.90;;;;;;4994429;28;20216;-70
2022/01/31 10:08:27;;;;;;;17.60;5.43;;;4.60;99.90;;;;;;4996612;28;20231;-70
2022/01/31 10:11:00;;;;;;;17.50;5.40;;;4.50;99.90;;;;;;4981776;28;20206;-70
2022/01/31 10:16:28;;;;;;;19.00;5.50;;;4.70;99.90;;;;;;4990756;28;20236;-70
2022/01/31 10:19:10;;;;;;;17.67;5.47;;;4.80;99.90;;;;;;5026578;28;20192;-70
2022/01/31 10:22:05;;;;;;;21.33;4.37;;;4.70;99.90;;;;;;4975537;28;20216;-70
2022/01/31 10:24:32;;;;;;;21.30;4.87;;;4.80;99.90;;;;;;4989292;28;20303;-70
2022/01/31 10:27:07;;;;;;;13.17;4.63;;;4.80;99.90;;;;;;4985334;28;20755;-70
2022/01/31 10:29:33;;;;;;;14.83;5.50;;;4.80;99.90;;;;;;4991682;28;20211;-70
2022/01/31 10:32:09;;;;;;;17.80;4.60;;;4.60;99.90;;;;;;4985004;28;20246;-70
2022/01/31 10:34:51;;;;;;;15.17;4.30;;;4.60;99.90;;;;;;4986898;28;20752;-71
2022/01/31 10:37:19;;;;;;;16.50;5.27;;;4.60;99.90;;;;;;4998556;28;20212;-71
2022/01/31 10:45:40;;;;;;;17.20;5.57;;;4.50;99.90;;;;;;5000103;28;20613;-68
2022/01/31 10:53:45;;;;;;;15.30;4.90;;;4.70;99.90;;;;;;5005347;28;20524;-71
2022/01/31 10:56:11;;;;;;;16.97;5.33;;;4.80;99.90;;;;;;4974290;28;20236;-70
2022/01/31 10:58:56;;;;;;;12.80;4.43;;;4.80;99.90;;;;;;4984991;28;20677;-70
2022/01/31 11:01:22;;;;;;;18.83;5.53;;;4.90;99.90;;;;;;4982645;28;20210;-71
2022/01/31 11:03:48;;;;;;;13.47;3.83;;;4.90;99.90;;;;;;4999158;28;20603;-71
2022/01/31 11:06:13;;;;;;;13.83;4.90;;;4.90;99.90;;;;;;4991510;28;20216;-71
2022/01/31 11:08:39;;;;;;;20.00;5.20;;;5.00;99.90;;;;;;4996104;28;20208;-70
2022/01/31 11:11:05;;;;;;;15.47;4.53;;;5.10;99.90;;;;;;4991339;28;20386;-70
2022/01/31 11:13:33;;;;;;;11.80;4.00;;;5.10;99.90;;;;;;5000225;28;20286;-72
2022/01/31 11:16:00;;;;;;;15.53;6.20;;;5.10;99.90;;;;;;4989203;28;20209;-81
2022/01/31 11:18:29;;;;;;;15.30;4.87;;;5.10;99.90;;;;;;4996569;28;20208;-70
2022/01/31 11:21:06;;;;;;;17.63;5.23;;;5.20;99.90;;;;;;4983447;28;20218;-72
2022/01/31 11:23:38;;;;;;;16.10;4.60;;;5.20;99.90;;;;;;4979530;28;20184;-70
2022/01/31 11:26:07;;;;;;;16.60;5.17;;;5.30;99.90;;;;;;4975283;28;20686;-71
2022/01/31 11:28:34;;;;;;;20.77;5.03;;;5.40;99.90;;;;;;4977624;28;20193;-71
2022/01/31 11:31:01;;;;;;;18.30;4.43;;;5.30;99.90;;;;;;4976010;28;20287;-71
2022/01/31 11:33:28;;;;;;;19.27;4.67;;;5.20;99.90;;;;;;4979944;28;20559;-71
2022/01/31 11:35:53;;;;;;;14.60;4.37;;;5.30;99.90;;;;;;4978141;28;20326;-71
2022/01/31 11:38:19;;;;;;;10.67;4.57;;;5.30;99.90;;;;;;4976995;28;20630;-73
2022/01/31 11:40:46;;;;;;;11.40;4.27;;;5.40;99.90;;;;;;4989478;28;20362;-68
2022/01/31 11:43:14;;;;;;;14.37;4.37;;;5.50;99.90;;;;;;4983219;28;20185;-69
2022/01/31 11:45:42;;;;;;;10.63;4.47;;;5.60;99.90;;;;;;4994452;28;20213;-70
2022/01/31 11:48:19;;;;;;;10.50;4.17;;;5.90;99.90;;;;;;4982067;28;20185;-69
2022/01/31 11:50:49;;;;;;;14.77;3.93;;;6.10;99.90;;;;;;4982980;28;20752;-68
2022/01/31 11:53:15;;;;;;;12.60;4.37;;;6.20;99.90;;;;;;4972269;28;20185;-69
2022/01/31 11:55:42;;;;;;;10.93;3.90;;;6.30;99.90;;;;;;4979522;28;20197;-68
2022/01/31 11:58:17;;;;;;;17.43;4.90;;;6.60;99.90;;;;;;4978633;28;20177;-70
2022/01/31 12:00:45;;;;;;;17.57;4.77;;;6.60;99.90;;;;;;4975255;28;20197;-69
2022/01/31 12:03:15;;;;;;;16.63;5.07;;;6.70;99.90;;;;;;4997586;28;20180;-70
2022/01/31 12:05:43;;;;;;;16.73;4.13;;;6.60;99.90;;;;;;4993934;28;20216;-69
2022/01/31 12:08:22;;;;;;;17.60;5.40;;;6.60;99.90;;;;;;4977262;28;20177;-69
2022/01/31 12:10:53;;;;;;;20.97;5.37;;;6.70;99.90;;;;;;4974358;28;20197;-67
2022/01/31 12:13:45;;;;;;;10.33;5.60;;;6.70;99.90;;;;;;4980736;28;20173;-70
2022/01/31 12:16:35;;;;;;;17.80;5.13;;;6.60;99.90;;;;;;4976417;28;20198;-70
2022/01/31 12:19:29;;;;;;;14.73;4.47;;;6.80;99.90;;;;;;4988329;28;20189;-70
2022/01/31 12:22:00;;;;;;;17.80;5.10;;;6.80;99.90;;;;;;4977786;28;20212;-69
2022/01/31 12:24:44;;;;;;;19.20;7.80;;;6.80;99.90;;;;;;4975307;28;20542;-69
2022/01/31 12:27:18;;;;;;;9.00;4.60;;;6.80;99.90;;;;;;4982343;28;20959;-67
2022/01/31 12:29:45;;;;;;;15.83;5.90;;;6.60;99.90;;;;;;4978192;28;20178;-68
2022/01/31 12:32:17;;;;;;;11.87;5.07;;;6.50;99.90;;;;;;4979802;28;20271;-69
2022/01/31 12:34:53;;;;;;;13.30;4.83;;;6.50;99.90;;;;;;4979969;28;20201;-69
2022/01/31 12:37:23;;;;;;;7.87;4.07;;;6.60;99.90;;;;;;4989388;28;20694;-69
2022/01/31 12:40:04;;;;;;;17.33;5.27;;;6.60;99.90;;;;;;4982695;28;20206;-69
2022/01/31 12:42:46;;;;;;;16.47;5.23;;;6.50;99.90;;;;;;5054713;28;20193;-69
2022/01/31 12:45:15;;;;;;;15.73;5.90;;;6.40;99.90;;;;;;5057821;28;20210;-70
2022/01/31 12:48:15;;;;;;;17.00;5.97;;;6.40;99.90;;;;;;5062567;28;20171;-67
2022/01/31 12:50:53;;;;;;;11.40;4.93;;;6.50;99.90;;;;;;5067345;28;20193;-68
2022/01/31 12:53:35;;;;;;;12.23;5.07;;;6.60;99.90;;;;;;5061653;28;20264;-68
2022/01/31 12:56:23;;;;;;;14.33;5.03;;;6.70;99.90;;;;;;5063382;28;20225;-68
2022/01/31 12:58:51;;;;;;;14.80;4.87;;;6.50;99.90;;;;;;5064519;28;20639;-68
2022/01/31 13:01:20;;;;;;;15.63;4.97;;;6.30;99.90;;;;;;5074389;28;20206;-74
2022/01/31 13:03:48;;;;;;;13.67;4.83;;;6.30;99.90;;;;;;5062201;28;20193;-69
2022/01/31 13:06:34;;;;;;;16.57;5.50;;;6.40;99.90;;;;;;5059603;28;20217;-70
2022/01/31 13:09:08;;;;;;;13.37;4.90;;;6.70;99.90;;;;;;5060905;28;20194;-69
2022/01/31 13:11:34;;;;;;;12.80;5.17;;;6.80;99.90;;;;;;5066130;28;20177;-70
2022/01/31 13:14:06;;;;;;;16.23;5.33;;;6.80;99.90;;;;;;5063834;28;20202;-70
2022/01/31 13:17:08;;;;;;;14.87;5.03;;;6.90;99.90;;;;;;5067077;28;20190;-69
2022/01/31 13:19:37;;;;;;;17.13;6.00;;;6.80;99.90;;;;;;5062251;28;20728;-68